createdAt,value
2023-05-04T00:00:31.355Z,100.00
2023-05-04T00:05:32.831Z,100.00
2023-05-04T00:10:34.283Z,100.00
2023-05-04T00:15:36.025Z,100.00
2023-05-04T00:20:37.693Z,100.00
2023-05-04T00:25:39.130Z,100.00
2023-05-04T00:30:40.632Z,100.00
2023-05-04T00:35:42.129Z,100.00
2023-05-04T00:40:43.633Z,100.00
2023-05-04T00:45:45.919Z,100.00
2023-05-04T00:50:47.437Z,100.00
2023-05-04T00:55:48.903Z,100.00
2023-05-04T01:00:50.990Z,100.00
2023-05-04T01:06:04.527Z,100.00
2023-05-04T01:11:21.226Z,100.00
2023-05-04T01:16:22.769Z,100.00
2023-05-04T01:21:24.290Z,100.00
2023-05-04T01:26:30.343Z,100.00
2023-05-04T01:31:35.293Z,100.00
2023-05-04T01:36:37.404Z,100.00
2023-05-04T01:41:38.900Z,100.00
2023-05-04T01:46:40.534Z,100.00
2023-05-04T01:51:42.076Z,100.00
2023-05-04T01:56:43.703Z,100.00
2023-05-04T02:01:45.271Z,100.00
2023-05-04T02:06:48.002Z,100.00
2023-05-04T02:11:49.479Z,100.00
2023-05-04T02:16:50.965Z,100.00
2023-05-04T02:21:52.787Z,100.00
2023-05-04T02:26:56.866Z,100.00
2023-05-04T02:31:58.557Z,100.00
2023-05-04T02:37:00.193Z,100.00
2023-05-04T02:42:01.866Z,100.00
2023-05-04T02:47:03.424Z,100.00
2023-05-04T02:52:05.248Z,100.00
2023-05-04T02:57:07.105Z,100.00
2023-05-04T03:02:08.730Z,100.00
2023-05-04T03:07:10.312Z,100.00
2023-05-04T03:12:13.271Z,100.00
2023-05-04T03:17:14.866Z,100.00
2023-05-04T03:22:16.692Z,100.00
2023-05-04T03:27:19.453Z,100.00
2023-05-04T03:32:21.188Z,100.00
2023-05-04T03:37:23.481Z,100.00
2023-05-04T03:42:25.182Z,100.00
2023-05-04T03:47:27.337Z,100.00
2023-05-04T03:52:28.958Z,100.00
2023-05-04T03:57:30.765Z,100.00
2023-05-04T04:02:33.014Z,100.00
2023-05-04T04:07:34.849Z,100.00
2023-05-04T04:12:36.762Z,100.00
2023-05-04T04:17:38.404Z,100.00
2023-05-04T04:22:39.953Z,100.00
2023-05-04T04:27:41.707Z,100.00
2023-05-04T04:32:43.324Z,100.00
2023-05-04T04:37:44.892Z,100.00
2023-05-04T04:42:46.772Z,100.00
2023-05-04T04:47:48.345Z,100.00
2023-05-04T04:52:49.881Z,100.00
2023-05-04T04:57:52.610Z,100.00
2023-05-04T05:02:54.396Z,100.00
2023-05-04T05:07:56.262Z,100.00
2023-05-04T05:12:58.010Z,100.00
2023-05-04T05:17:59.675Z,100.00
2023-05-04T05:23:01.308Z,100.00
2023-05-04T05:28:02.942Z,100.00
2023-05-04T05:33:04.561Z,100.00
2023-05-04T05:38:06.127Z,100.00
2023-05-04T05:43:07.679Z,100.00
2023-05-04T05:48:09.321Z,100.00
2023-05-04T05:53:11.506Z,100.00
2023-05-04T05:58:13.966Z,100.00
2023-05-04T06:03:15.648Z,100.00
2023-05-04T06:08:17.418Z,100.00
2023-05-04T06:13:18.980Z,100.00
2023-05-04T06:18:21.129Z,100.00
2023-05-04T06:23:22.790Z,100.00
2023-05-04T06:28:24.356Z,100.00
2023-05-04T06:33:26.845Z,100.00
2023-05-04T06:38:28.482Z,100.00
2023-05-04T06:43:29.999Z,100.00
2023-05-04T06:48:31.953Z,100.00
2023-05-04T06:53:33.568Z,100.00
2023-05-04T06:58:35.101Z,100.00
2023-05-04T07:03:37.149Z,100.00
2023-05-04T07:08:38.759Z,100.00
2023-05-04T07:13:40.293Z,100.00
2023-05-04T07:18:41.884Z,100.00
2023-05-04T07:23:43.502Z,100.00
2023-05-04T07:28:45.073Z,100.00
2023-05-04T07:33:46.674Z,100.00
2023-05-04T07:38:48.271Z,100.00
2023-05-04T07:43:49.950Z,100.00
2023-05-04T07:48:51.590Z,100.00
2023-05-04T07:53:53.143Z,100.00
2023-05-04T07:58:54.788Z,100.00
2023-05-04T08:03:56.408Z,96.92
2023-05-04T08:08:57.923Z,96.71
2023-05-04T08:13:59.837Z,92.36
2023-05-04T08:19:01.481Z,94.50
2023-05-04T08:24:03.642Z,91.38
2023-05-04T08:29:10.464Z,94.52
2023-05-04T08:34:12.075Z,93.14
2023-05-04T08:39:13.664Z,86.83
2023-05-04T08:44:17.558Z,87.67
2023-05-04T08:49:20.535Z,90.60
2023-05-04T08:54:22.695Z,87.96
2023-05-04T08:59:25.119Z,85.27
2023-05-04T09:04:29.268Z,88.44
2023-05-04T09:09:31.786Z,83.14
2023-05-04T09:14:35.848Z,81.00
2023-05-04T09:19:38.928Z,83.32
2023-05-04T09:24:40.648Z,78.01
2023-05-04T09:29:42.553Z,76.18
2023-05-04T09:34:51.407Z,79.92
2023-05-04T09:39:58.752Z,77.13
2023-05-04T09:45:05.046Z,79.06
2023-05-04T09:50:17.602Z,76.58
2023-05-04T09:55:21.152Z,72.35
2023-05-04T10:00:22.812Z,68.54
2023-05-04T10:05:24.719Z,71.53
2023-05-04T10:10:27.128Z,71.93
2023-05-04T10:15:28.978Z,68.30
2023-05-04T10:20:53.726Z,68.20
2023-05-04T10:26:26.440Z,65.05
2023-05-04T10:31:40.581Z,70.87
2023-05-04T10:36:42.362Z,64.04
2023-05-04T10:42:05.156Z,64.90
2023-05-04T10:47:08.082Z,63.96
2023-05-04T10:52:16.930Z,59.81
2023-05-04T10:57:18.538Z,60.89
2023-05-04T11:02:24.501Z,55.92
2023-05-04T11:07:38.861Z,53.24
2023-05-04T11:12:40.725Z,49.59
2023-05-04T11:17:51.493Z,51.96
2023-05-04T11:22:54.347Z,49.96
2023-05-04T11:27:57.006Z,52.47
2023-05-04T11:33:00.439Z,47.83
2023-05-04T11:38:02.552Z,45.54
2023-05-04T11:43:04.537Z,50.26
2023-05-04T11:48:08.648Z,48.78
2023-05-04T11:53:12.233Z,48.38
2023-05-04T11:58:14.185Z,45.86
2023-05-04T12:03:17.689Z,51.64
2023-05-04T12:08:24.168Z,47.81
2023-05-04T12:13:25.805Z,48.15
2023-05-04T12:18:29.850Z,50.53
2023-05-04T12:23:31.795Z,54.00
2023-05-04T12:28:35.362Z,48.37
2023-05-04T12:33:36.904Z,49.42
2023-05-04T12:38:39.050Z,49.72
2023-05-04T12:43:40.981Z,49.38
2023-05-04T12:48:42.520Z,50.33
2023-05-04T12:53:44.151Z,57.59
2023-05-04T12:58:45.844Z,51.20
2023-05-04T13:03:47.642Z,52.27
2023-05-04T13:08:49.252Z,49.31
2023-05-04T13:13:52.737Z,52.06
2023-05-04T13:18:55.614Z,51.99
2023-05-04T13:23:58.111Z,54.87
2023-05-04T13:28:59.666Z,51.91
2023-05-04T13:34:01.503Z,51.43
2023-05-04T13:39:03.445Z,54.17
2023-05-04T13:44:05.153Z,52.34
2023-05-04T13:49:07.550Z,52.84
2023-05-04T13:54:10.338Z,49.76
2023-05-04T13:59:12.020Z,53.24
2023-05-04T14:04:13.734Z,51.49
2023-05-04T14:09:16.028Z,56.44
2023-05-04T14:14:17.665Z,52.27
2023-05-04T14:19:19.449Z,55.20
2023-05-04T14:24:22.267Z,51.68
2023-05-04T14:29:23.993Z,51.56
2023-05-04T14:34:28.858Z,55.70
2023-05-04T14:39:30.694Z,56.98
2023-05-04T14:44:34.590Z,57.94
2023-05-04T14:49:41.796Z,58.90
2023-05-04T14:54:44.142Z,58.52
2023-05-04T14:59:45.845Z,61.38
2023-05-04T15:04:47.722Z,61.62
2023-05-04T15:09:49.484Z,56.67
2023-05-04T15:14:51.306Z,59.60
2023-05-04T15:19:53.188Z,62.42
2023-05-04T15:24:55.633Z,55.61
2023-05-04T15:29:57.477Z,59.02
2023-05-04T15:35:05.176Z,55.77
2023-05-04T15:40:08.531Z,58.68
2023-05-04T15:45:10.748Z,57.59
2023-05-04T15:50:12.424Z,59.12
2023-05-04T15:55:25.152Z,56.62
2023-05-04T16:00:27.830Z,59.77
2023-05-04T16:05:29.545Z,57.88
2023-05-04T16:10:31.077Z,55.90
2023-05-04T16:15:32.618Z,60.73
2023-05-04T16:20:34.161Z,53.97
2023-05-04T16:25:35.739Z,57.55
2023-05-04T16:30:37.838Z,55.36
2023-05-04T16:35:39.734Z,57.39
2023-05-04T16:40:42.012Z,56.77
2023-05-04T16:45:43.590Z,55.56
2023-05-04T16:50:45.564Z,60.06
2023-05-04T16:55:47.219Z,57.79
2023-05-04T17:00:48.798Z,59.09
2023-05-04T17:05:51.260Z,58.52
2023-05-04T17:10:52.864Z,56.23
2023-05-04T17:15:54.395Z,58.56
2023-05-04T17:20:55.945Z,56.98
2023-05-04T17:25:57.510Z,56.86
2023-05-04T17:30:59.045Z,57.42
2023-05-04T17:36:00.638Z,59.26
2023-05-04T17:41:02.180Z,60.75
2023-05-04T17:46:03.985Z,60.73
2023-05-04T17:51:09.037Z,60.70
2023-05-04T17:56:35.418Z,62.10
2023-05-04T18:01:37.117Z,65.05
2023-05-04T18:06:38.699Z,65.11
2023-05-04T18:11:40.671Z,65.82
2023-05-04T18:16:42.240Z,65.05
2023-05-04T18:21:43.824Z,65.16
2023-05-04T18:26:45.964Z,68.67
2023-05-04T18:31:47.587Z,67.27
2023-05-04T18:36:49.400Z,67.30
2023-05-04T18:41:51.028Z,69.57
2023-05-04T18:46:52.748Z,70.81
2023-05-04T18:51:54.287Z,73.16
2023-05-04T18:56:57.789Z,74.48
2023-05-04T19:01:59.457Z,75.04
2023-05-04T19:07:01.760Z,78.32
2023-05-04T19:12:04.028Z,80.61
2023-05-04T19:17:06.030Z,80.07
2023-05-04T19:22:07.642Z,79.04
2023-05-04T19:27:09.516Z,80.73
2023-05-04T19:32:22.949Z,81.22
2023-05-04T19:37:26.574Z,81.89
2023-05-04T19:42:28.594Z,82.95
2023-05-04T19:47:30.194Z,83.43
2023-05-04T19:52:34.877Z,89.32
2023-05-04T19:57:36.632Z,87.64
2023-05-04T20:02:38.379Z,88.57
2023-05-04T20:07:40.064Z,90.65
2023-05-04T20:12:42.013Z,96.79
2023-05-04T20:17:43.569Z,99.51
2023-05-04T20:22:45.146Z,100.00
2023-05-04T20:27:48.704Z,97.06
2023-05-04T20:32:50.808Z,95.52
2023-05-04T20:37:52.766Z,93.83
2023-05-04T20:42:54.389Z,93.91
2023-05-04T20:47:56.022Z,95.63
2023-05-04T20:52:57.745Z,95.86
2023-05-04T20:57:59.357Z,92.78
2023-05-04T21:03:01.072Z,95.15
2023-05-04T21:08:03.170Z,94.93
2023-05-04T21:13:05.123Z,96.42
2023-05-04T21:18:06.757Z,96.08
2023-05-04T21:23:08.292Z,97.91
2023-05-04T21:28:10.355Z,100.00
2023-05-04T21:33:11.906Z,98.99
2023-05-04T21:38:13.464Z,100.00
2023-05-04T21:43:15.043Z,98.44
2023-05-04T21:48:16.575Z,100.00
2023-05-04T21:53:18.126Z,100.00
2023-05-04T21:58:19.665Z,100.00
2023-05-04T22:03:21.602Z,99.92
2023-05-04T22:08:27.697Z,100.00
2023-05-04T22:13:29.527Z,100.00
2023-05-04T22:18:31.059Z,100.00
2023-05-04T22:23:32.730Z,100.00
2023-05-04T22:28:34.289Z,100.00
2023-05-04T22:33:35.846Z,100.00
2023-05-04T22:38:37.422Z,100.00
2023-05-04T22:43:38.973Z,100.00
2023-05-04T22:48:40.761Z,100.00
2023-05-04T22:53:42.333Z,100.00
2023-05-04T22:58:45.838Z,100.00
2023-05-04T23:03:48.624Z,100.00
2023-05-04T23:08:50.654Z,100.00
2023-05-04T23:13:52.246Z,100.00
2023-05-04T23:18:53.784Z,100.00
2023-05-04T23:23:55.684Z,100.00
2023-05-04T23:28:57.247Z,100.00
2023-05-04T23:33:58.784Z,100.00
2023-05-04T23:39:00.450Z,100.00
2023-05-04T23:44:02.088Z,100.00
2023-05-04T23:49:04.034Z,100.00
2023-05-04T23:54:05.763Z,100.00
2023-05-04T23:59:07.264Z,100.00
